Latest Coastal Weather Observations for Cape Wessel

IDD60701

Issued at 4:05 am CST Wednesday 1 October 2014 (issued every 10 minutes, with the page automatically refreshed every 10 minutes)

About coastal observations | Map of coastal stations | Coastal observations for NT | Marine services | Other Formats
Station Details ID: 200786 Name: CAPE WESSEL Lat: -11.00 Lon: 136.76 Height: 18.0 m
Data from the previous 72 hours. | See also: Recent months for locations in Northern Territory
Date/Time
CST
Temp

°C
Wind Pressure Rain
since 9am
mm
Weather Cloud Vis
km
Sea
Height
m
Swell
Dir
 
Speed
knots
Gust
knots
hPa Trend Height
m
Period
s
Dir
01/04:00am 24.8 ESE 14 16 1011.9 - 0.0 - - - - - - -
01/03:30am 24.7 E 13 16 1012.0 - 0.0 - - - - - - -
01/03:00am 24.8 E 14 18 1011.9 - 0.0 - - - - - - -
01/02:30am 25.0 E 15 18 1012.3 - 0.0 - - - - - - -
01/02:00am 24.9 E 13 17 1012.6 - 0.0 - - - - - - -
01/01:30am 25.1 E 14 18 1012.7 - 0.0 - - - - - - -
01/01:00am 25.0 E 15 17 1013.1 - 0.0 - - - - - - -
01/12:30am 24.9 E 15 18 1013.3 - 0.0 - - - - - - -
01/12:00am 24.8 E 14 17 1013.3 - 0.0 - - - - - - -
 
Date/Time
CST
Temp

°C
Wind Pressure Rain
since 9am
mm
Weather Cloud Vis
km
Sea
Height
m
Swell
Dir
 
Speed
knots
Gust
knots
hPa Trend Height
m
Period
s
Dir
30/11:30pm 24.8 E 14 17 1013.7 - 0.0 - - - - - - -
30/11:00pm 24.8 E 14 17 1013.9 - 0.0 - - - - - - -
30/10:30pm 24.8 E 15 19 1013.9 - 0.0 - - - - - - -
30/10:00pm 25.1 E 17 21 1013.7 - 0.0 - - - - - - -
30/09:30pm 25.1 E 16 19 1013.6 - 0.0 - - - - - - -
30/09:00pm 25.1 E 16 21 1013.2 - 0.0 - - - - - - -
30/08:30pm 25.1 E 17 20 1013.2 - 0.0 - - - - - - -
30/08:00pm 25.1 ESE 16 19 1012.9 - 0.0 - - - - - - -
30/07:30pm 25.1 ESE 16 20 1012.6 - 0.0 - - - - - - -
30/07:00pm 25.1 ESE 16 20 1012.3 - 0.0 - - - - - - -
30/06:30pm 25.4 ESE 16 19 1011.9 - 0.0 - - - - - - -
30/06:00pm 25.7 ESE 16 19 1011.7 - 0.0 - - - - - - -
30/05:30pm 26.3 ESE 15 19 1011.6 - 0.0 - - - - - - -
30/05:00pm 27.4 E 15 18 1011.5 - 0.0 - - - - - - -
30/04:30pm 28.3 ESE 15 19 1011.3 - 0.0 - - - - - - -
30/04:00pm 28.2 ESE 16 19 1011.4 - 0.0 - - - - - - -
30/03:30pm 29.3 E 16 20 1011.5 - 0.0 - - - - - - -
30/03:00pm 30.2 E 14 18 1011.6 - 0.0 - - - - - - -
30/02:30pm 31.0 E 15 19 1011.8 - 0.0 - - - - - - -
30/02:00pm 30.7 E 15 18 1012.0 - 0.0 - - - - - - -
30/01:30pm 30.5 E 14 18 1012.3 - 0.0 - - - - - - -
30/01:00pm 30.8 E 14 18 1012.8 - 0.0 - - - - - - -
30/12:30pm 31.2 E 14 17 1013.3 - 0.0 - - - - - - -
30/12:00pm 31.0 E 14 18 1013.9 - 0.0 - - - - - - -
30/11:30am 30.7 E 14 19 1014.4 - 0.0 - - - - - - -
30/11:00am 31.0 E 15 19 1014.9 - 0.0 - - - - - - -
30/10:30am 30.7 E 15 19 1015.3 - 0.0 - - - - - - -
30/10:00am 29.3 E 15 19 1015.5 - 0.0 - - - - - - -
30/09:30am 29.0 E 16 20 1015.4 - 0.0 - - - - - - -
30/09:00am 28.4 E 20 24 1015.3 - 0.0 - - - - - - -
30/08:30am 27.9 E 19 24 1015.0 - 0.0 - - - - - - -
30/08:00am 27.4 E 20 25 1014.8 - 0.0 - - - - - - -
30/07:30am 26.8 E 20 27 1014.4 - 0.0 - - - - - - -
30/07:00am 26.1 E 19 25 1014.0 - 0.0 - - - - - - -
30/06:30am 25.9 E 20 25 1013.6 - 0.0 - - - - - - -
30/06:00am 25.8 E 19 24 1013.2 - 0.0 - - - - - - -
30/05:30am 25.0 E 13 17 1013.0 - 0.0 - - - - - - -
30/05:00am 24.8 E 13 17 1012.7 - 0.0 - - - - - - -
30/04:30am 25.2 E 13 17 1012.5 - 0.0 - - - - - - -
30/04:00am 25.3 E 15 19 1012.3 - 0.0 - - - - - - -
30/03:30am 25.2 E 13 17 1012.3 - 0.0 - - - - - - -
30/03:00am 25.1 E 14 18 1012.1 - 0.0 - - - - - - -
30/02:30am 25.0 E 14 18 1012.2 - 0.0 - - - - - - -
30/02:00am 25.1 E 15 19 1012.6 - 0.0 - - - - - - -
30/01:30am 25.2 E 15 19 1012.7 - 0.0 - - - - - - -
30/01:00am 25.1 E 14 18 1012.9 - 0.0 - - - - - - -
30/12:30am 25.1 E 15 18 1013.0 - 0.0 - - - - - - -
30/12:00am 25.2 E 15 19 1013.2 - 0.0 - - - - - - -
 
Date/Time
CST
Temp

°C
Wind Pressure Rain
since 9am
mm
Weather Cloud Vis
km
Sea
Height
m
Swell
Dir
 
Speed
knots
Gust
knots
hPa Trend Height
m
Period
s
Dir
29/11:30pm 25.2 E 15 18 1013.5 - 0.0 - - - - - - -
29/11:00pm 25.2 E 16 19 1013.6 - 0.0 - - - - - - -
29/10:30pm 25.2 E 14 17 1013.7 - 0.0 - - - - - - -
29/10:00pm 25.2 E 16 19 1013.6 - 0.0 - - - - - - -
29/09:30pm 25.3 E 17 21 1013.3 - 0.0 - - - - - - -
29/09:00pm 25.3 E 16 20 1012.9 - 0.0 - - - - - - -
29/08:30pm 25.3 E 17 21 1012.8 - 0.0 - - - - - - -
29/08:00pm 25.3 E 17 20 1012.6 - 0.0 - - - - - - -
29/07:30pm 25.2 E 16 19 1012.3 - 0.0 - - - - - - -
29/07:00pm 25.4 E 17 21 1011.9 - 0.0 - - - - - - -
29/06:30pm 25.5 E 17 21 1011.6 - 0.0 - - - - - - -
29/06:00pm 26.0 E 18 21 1011.2 - 0.0 - - - - - - -
29/05:30pm 26.5 E 16 20 1011.0 - 0.0 - - - - - - -
29/05:00pm 27.9 E 17 21 1010.8 - 0.0 - - - - - - -
29/04:30pm 28.3 E 16 21 1010.7 - 0.0 - - - - - - -
29/04:00pm 29.3 E 16 21 1010.7 - 0.0 - - - - - - -
29/03:30pm 29.7 E 17 21 1011.0 - 0.0 - - - - - - -
29/03:00pm 29.6 E 16 21 1011.0 - 0.0 - - - - - - -
29/02:30pm 30.1 E 17 21 1011.2 - 0.0 - - - - - - -
29/02:00pm 30.4 E 16 19 1011.6 - 0.0 - - - - - - -
29/01:30pm 31.0 E 15 20 1011.8 - 0.0 - - - - - - -
29/01:00pm 31.1 E 17 22 1012.2 - 0.0 - - - - - - -
29/12:30pm 31.7 E 15 20 1012.7 - 0.0 - - - - - - -
29/12:00pm 30.6 E 17 21 1013.0 - 0.0 - - - - - - -
29/11:30am 30.0 E 16 19 1013.5 - 0.0 - - - - - - -
29/11:00am 31.0 E 14 20 1013.7 - 0.0 - - - - - - -
29/10:30am 30.4 ENE 13 18 1013.9 - 0.0 - - - - - - -
29/10:00am 29.7 ENE 15 19 1014.1 - 0.0 - - - - - - -
29/09:30am 29.4 ENE 13 17 1014.2 - 0.0 - - - - - - -
29/09:00am 29.0 ENE 15 18 1014.0 - 0.0 - - - - - - -
29/08:30am 28.4 ENE 15 20 1014.1 - 0.0 - - - - - - -
29/08:00am 28.1 ENE 14 17 1013.9 - 0.0 - - - - - - -
29/07:30am 27.3 ENE 15 19 1013.6 - 0.0 - - - - - - -
29/07:00am 25.8 ENE 16 20 1013.1 - 0.0 - - - - - - -
29/06:30am 25.5 ENE 15 18 1012.7 - 0.0 - - - - - - -
29/06:00am 25.3 ENE 15 19 1012.3 - 0.0 - - - - - - -
29/05:30am 25.3 ENE 16 20 1012.1 - 0.0 - - - - - - -
29/05:00am 25.3 ENE 14 19 1011.8 - 0.0 - - - - - - -
29/04:30am 25.4 ENE 15 19 1011.5 - 0.0 - - - - - - -
29/04:00am 25.3 ENE 15 18 1011.4 - 0.0 - - - - - - -
29/03:30am 25.3 ENE 15 18 1011.4 - 0.0 - - - - - - -
29/03:00am 25.3 ENE 12 15 1011.4 - 0.0 - - - - - - -
29/02:30am 25.1 E 12 15 1011.6 - 0.0 - - - - - - -
29/02:00am 25.1 E 13 16 1012.0 - 0.0 - - - - - - -
29/01:30am 25.2 E 13 16 1012.2 - 0.0 - - - - - - -
29/01:00am 25.2 E 13 17 1012.4 - 0.0 - - - - - - -
29/12:30am 25.2 E 14 17 1012.6 - 0.0 - - - - - - -
29/12:00am 25.3 E 14 18 1012.8 - 0.0 - - - - - - -
 
Date/Time
CST
Temp

°C
Wind Pressure Rain
since 9am
mm
Weather Cloud Vis
km
Sea
Height
m
Swell
Dir
 
Speed
knots
Gust
knots
hPa Trend Height
m
Period
s
Dir
28/11:30pm 25.3 E 15 18 1013.1 - 0.0 - - - - - - -
28/11:00pm 25.4 E 15 18 1013.4 - 0.0 - - - - - - -
28/10:30pm 25.3 E 14 18 1013.4 - 0.0 - - - - - - -
28/10:00pm 25.4 E 16 19 1013.4 - 0.0 - - - - - - -
28/09:30pm 25.4 E 14 18 1013.2 - 0.0 - - - - - - -
28/09:00pm 25.6 E 14 17 1013.0 - 0.0 - - - - - - -
28/08:30pm 25.7 E 15 17 1012.7 - 0.0 - - - - - - -
28/08:00pm 25.6 E 13 16 1012.3 - 0.0 - - - - - - -
28/07:30pm 25.6 E 13 16 1011.7 - 0.0 - - - - - - -
28/07:00pm 25.7 E 12 16 1011.5 - 0.0 - - - - - - -
28/06:30pm 25.8 E 13 16 1011.2 - 0.0 - - - - - - -
28/06:00pm 26.4 ESE 12 14 1011.0 - 0.0 - - - - - - -
28/05:30pm 27.4 ESE 11 15 1011.1 - 0.0 - - - - - - -
28/05:00pm 28.3 E 10 13 1010.9 - 0.0 - - - - - - -
28/04:30pm 29.1 E 9 12 1010.5 - 0.0 - - - - - - -
28/04:00pm 29.8 E 10 12 1010.5 - 0.0 - - - - - - -
28/03:30pm 29.8 E 9 11 1010.5 - 0.0 - - - - - - -
28/03:00pm 30.5 ESE 11 13 1010.8 - 0.0 - - - - - - -
28/02:30pm 31.3 E 11 14 1011.1 - 0.0 - - - - - - -
28/02:00pm 31.1 E 11 14 1011.5 - 0.0 - - - - - - -
28/01:30pm 30.7 E 10 12 1011.7 - 0.0 - - - - - - -
28/01:00pm 31.9 E 10 12 1012.1 - 0.0 - - - - - - -
28/12:30pm 30.9 ENE 10 12 1012.7 - 0.0 - - - - - - -
28/12:00pm 30.7 E 9 11 1013.2 - 0.0 - - - - - - -
28/11:30am 31.1 ENE 10 13 1013.6 - 0.0 - - - - - - -
28/11:00am 30.4 ENE 10 12 1014.2 - 0.0 - - - - - - -
28/10:30am 30.7 ENE 10 13 1014.4 - 0.0 - - - - - - -
28/10:00am 30.2 ENE 11 14 1014.6 - 0.0 - - - - - - -
28/09:30am 29.8 ENE 12 16 1014.8 - 0.0 - - - - - - -
28/09:00am 29.2 ENE 13 16 1014.8 - 0.0 - - - - - - -
28/08:30am 28.6 ENE 12 15 1014.8 - 0.0 - - - - - - -
28/07:30am 27.0 ENE 11 14 1014.4 - 0.0 - - - - - - -
28/07:00am 25.9 ENE 10 12 1014.1 - 0.0 - - - - - - -
28/06:30am 24.9 ENE 9 12 1013.7 - 0.0 - - - - - - -
28/06:00am 24.8 ENE 10 12 1013.2 - 0.0 - - - - - - -
28/05:30am 24.6 ENE 9 12 1012.9 - 0.0 - - - - - - -
28/05:00am 25.0 ENE 11 14 1012.8 - 0.0 - - - - - - -
28/04:30am 24.9 E 10 13 1012.7 - 0.0 - - - - - - -

Other Formats:

Comma delimited format used in spreadsheet applications
http://www.bom.gov.au/fwo/IDD60701/IDD60701.94147.axf

JavaScript Object Notation format (JSON) in row-major order
http://www.bom.gov.au/fwo/IDD60701/IDD60701.94147.json